Tring, United Kingdom
Current Conditions -  °F | °C
As of 7:20 AM on Saturday 20 Dec 2014 (Local Time) from EGGW Reporting Station
Broken Clouds Broken Clouds  
Wind Chill: 35°   Ceiling: 4100
Heat Index: 43°   Visibility: 6mi
Dew Point: 37°   Wind: 18mph
Humidity: 81%   Direction: 250°WSW
Pressure: 30.18"   Gusts: NA
Location:  51.79°N, 0.66°W
Report Text: EGGW 200720Z 25016KT 9999 BKN041 06/03 Q1022
Loading
Personal Weather Stations






























Interactive Weather Map New forecast layout! Learn more

10-Day Weather Forecast

Advertisements
Track Severe Weather on mobile